Caldas1b

Flughäfen (METAR Berichte)


LPPT - Lisboa
Entfernung von der Station: SSO 78km
aktuell: 02/03/2024 10:30
Teilweise bewölkt
Teilweise bewölkt
 Wind aus WSW
Wind: WSW 31 km/h, Windböen: 52 km/h
Temperatur: 15°C
Taupunkt: 10°C
Luftfeuchte: 72%
Luftdruck: 1013 hPa
Wolken: Teilweise bewölkt
Sichtbarkeit: 10 km
Trübung: Leicht bewölkt 549 m
Teilweise bewölkt 701 m
2024/03/02 10:30 LPPT 021030Z 25017G28KT 230V290 9999 FEW018 SCT023 15/10 Q1013
LPPR - Porto
Entfernung von der Station: NW 205km
aktuell: 02/03/2024 10:30
sehr leichter Niederschlag, Leicht bewölkt
sehr leichter Niederschlag, Leicht bewölkt
 Wind aus W
Wind: W 22 km/h, Windböen: 46 km/h
Temperatur: 13°C
Taupunkt: 11°C
Luftfeuchte: 88%
Luftdruck: 1004 hPa
Zusammenfassung: sehr leichter Niederschlag
Wolken: Leicht bewölkt
Sichtbarkeit: 10 km
Trübung: Leicht bewölkt 274 m
Stark bewölkt 366 m
Leicht bewölkt 610 m
2024/03/02 10:30 LPPR 021030Z 26012G25KT 230V310 9999 -RA FEW009 BKN012 FEW020CB 13/11 Q1004
 
LPFR - Faro
Entfernung von der Station: SO 286km
aktuell: 02/03/2024 10:30
Leicht bewölkt
Leicht bewölkt
 Wind aus W
Wind: W 17 km/h
Temperatur: 15°C
Taupunkt: 11°C
Luftfeuchte: 77%
Luftdruck: 1017 hPa
Wolken: Leicht bewölkt
Sichtbarkeit: 10 km
Trübung: Leicht bewölkt 457 m
2024/03/02 10:30 LPFR 021030Z 26009KT 9999 FEW015 15/11 Q1017
LPBJ - Beja
Entfernung von der Station: OSO 190km
aktuell: 02/03/2024 10:31
Niederschlag, Leicht bewölkt
Niederschlag, Leicht bewölkt
 Wind aus WSW
Wind: WSW 20 km/h
Temperatur: 12°C
Taupunkt: 10°C
Luftfeuchte: 88%
Luftdruck: 1015 hPa
Zusammenfassung: Niederschlag
Wolken: Leicht bewölkt
Sichtbarkeit: 5 km
Trübung: Stark bewölkt 457 m
Leicht bewölkt 610 m
2024/03/02 10:31 LPBJ 021031Z 25011KT 220V280 4500 SHRA BKN015 FEW020TCU 12/10 Q1015
 
LPMA - Funchal
Entfernung von der Station: SSW 1025km
aktuell: 02/03/2024 10:30
Leicht bewölkt
Leicht bewölkt
 Wind aus N
Wind: N 19 km/h
Temperatur: 17°C
Taupunkt: 10°C
Luftfeuchte: 64%
Luftdruck: 1025 hPa
Wolken: Leicht bewölkt
Sichtbarkeit: 10 km
Trübung: Teilweise bewölkt 457 m
Leicht bewölkt 488 m
2024/03/02 10:30 LPMA 021030Z 01010KT 290V070 9999 SCT015 FEW016CB 17/10 Q1025
LPPD - Ponta Delgada
Entfernung von der Station: W 1450km
aktuell: 02/03/2024 10:30
Stark bewölkt
Stark bewölkt
 Wind aus N
Wind: N 15 km/h
Temperatur: 15°C
Taupunkt: 8°C
Luftfeuchte: 63%
Luftdruck: 1033 hPa
Wolken: Stark bewölkt
Sichtbarkeit: 10 km
Trübung: Leicht bewölkt 671 m
Stark bewölkt 1006 m
2024/03/02 10:30 LPPD 021030Z 35008KT 9999 FEW022 BKN033 15/08 Q1033
 
LPCS - Cascais
Entfernung von der Station: SSW 77km
aktuell: 02/03/2024 10:30
Teilweise bewölkt
Teilweise bewölkt
 Wind aus W
Wind: W 20 km/h, Windböen: 41 km/h
Temperatur: 15°C
Taupunkt: 11°C
Luftfeuchte: 77%
Luftdruck: 1013 hPa
Wolken: Teilweise bewölkt
Sichtbarkeit: 10 km
Trübung: Leicht bewölkt 610 m
Teilweise bewölkt 732 m
2024/03/02 10:30 LPCS 021030Z 27011G22KT 220V310 9999 FEW020 SCT024 15/11 Q1013
LPMR - Monte Real
Entfernung von der Station: N 55km
aktuell: 02/03/2024 10:00
sehr leichter Niederschlag, Niederschlag, Stark bewölkt
sehr leichter Niederschlag, Niederschlag, Stark bewölkt
 Wind aus W
Wind: W 20 km/h, Windböen: 39 km/h
Temperatur: 13°C
Taupunkt: 11°C
Luftfeuchte: 88%
Luftdruck: 1010 hPa
Zusammenfassung: sehr leichter Niederschlag, Niederschlag
Wolken: Stark bewölkt
Sichtbarkeit: 8 km
Trübung: Stark bewölkt 579 m
Stark bewölkt 914 m
2024/03/02 10:00 LPMR 021000Z 27011G21KT 230V290 8000 -SHRA BKN019 BKN030 13/11 Q1010

Phoenix Radar Flight Tracking

Map courtesy of flightradar24.com